Time;durP1;ratioP1;P1;durP2;ratioP2;P2;SDS_P1;SDS_P2;PMS_P1;PMS_P2;Temp;Humidity;BMP_temperature;BMP_pressure;BME280_temperature;BME280_humidity;BME280_pressure;Samples;Min_cycle;Max_cycle;Signal;HPM_P1;HPM_P2
2021/12/19 00:00:06;;;;;;;18.63;8.50;;;;;;;6.94;95.16;103713.53;5076605;28;20032;-41
2021/12/19 00:02:49;;;;;;;18.65;8.35;;;;;;;6.99;95.44;103708.91;5076618;28;20078;-41
2021/12/19 00:10:26;;;;;;;44.17;12.23;;;;;;;6.85;95.64;103698.63;5077041;28;20075;-42
2021/12/19 00:12:52;;;;;;;29.30;12.40;;;;;;;6.85;95.70;103699.47;5058523;28;20021;-45
2021/12/19 00:15:18;;;;;;;46.65;12.82;;;;;;;6.90;95.33;103705.16;5076334;28;20433;-38
2021/12/19 00:17:43;;;;;;;52.55;12.98;;;;;;;6.82;95.75;103691.94;5076006;28;20025;-41
2021/12/19 00:20:09;;;;;;;46.40;12.18;;;;;;;6.89;95.72;103692.41;5076000;28;20029;-42
2021/12/19 00:22:34;;;;;;;43.83;13.88;;;;;;;6.86;95.90;103688.28;5076275;28;20423;-42
2021/12/19 00:24:59;;;;;;;46.03;12.45;;;;;;;6.88;95.98;103680.47;5076203;28;20027;-41
2021/12/19 00:27:25;;;;;;;28.60;11.65;;;;;;;6.95;96.39;103684.31;5075863;28;20016;-40
2021/12/19 00:29:50;;;;;;;30.75;10.60;;;;;;;6.89;95.47;103680.38;5075794;28;20024;-40
2021/12/19 00:32:16;;;;;;;23.25;10.35;;;;;;;6.93;95.53;103683.56;5076047;28;20029;-39
2021/12/19 00:34:41;;;;;;;25.13;10.05;;;;;;;6.83;95.46;103675.59;5075600;28;20154;-41
2021/12/19 00:37:07;;;;;;;15.90;8.00;;;;;;;6.98;95.52;103673.84;5057479;28;20131;-47
2021/12/19 00:39:32;;;;;;;13.45;6.60;;;;;;;6.89;94.74;103666.69;5058093;28;20020;-41
2021/12/19 00:41:57;;;;;;;12.13;6.68;;;;;;;6.94;94.78;103674.97;5075896;28;20112;-41
2021/12/19 00:44:24;;;;;;;11.20;6.53;;;;;;;6.96;94.65;103665.41;5075560;28;20021;-41
2021/12/19 00:46:53;;;;;;;10.73;6.45;;;;;;;6.98;94.71;103666.13;5075749;28;20466;-41
2021/12/19 00:49:24;;;;;;;11.77;6.47;;;;;;;6.90;95.41;103669.16;5075667;28;20029;-41
2021/12/19 00:51:49;;;;;;;13.02;6.40;;;;;;;6.90;95.35;103664.03;5075290;28;20062;-41
2021/12/19 00:54:15;;;;;;;12.48;6.50;;;;;;;6.82;95.52;103658.53;5040751;28;20020;-42
2021/12/19 00:56:44;;;;;;;15.32;7.35;;;;;;;6.87;95.38;103659.06;5075259;28;20031;-42
2021/12/19 00:59:10;;;;;;;13.35;7.18;;;;;;;6.94;95.35;103655.22;5057700;28;20516;-43
2021/12/19 01:01:36;;;;;;;14.60;7.43;;;;;;;6.81;94.98;103643.19;5075200;28;20025;-50
2021/12/19 01:04:04;;;;;;;11.75;7.32;;;;;;;6.92;95.41;103657.06;5075156;28;20474;-42
2021/12/19 01:06:30;;;;;;;12.45;7.30;;;;;;;6.94;95.03;103654.41;5057218;28;20071;-41
2021/12/19 01:08:55;;;;;;;11.82;6.85;;;;;;;6.95;94.95;103645.75;5075335;28;20027;-40
2021/12/19 01:11:21;;;;;;;13.10;6.78;;;;;;;6.95;95.61;103656.03;5074993;28;20021;-39
2021/12/19 01:13:46;;;;;;;11.57;6.60;;;;;;;6.98;95.24;103655.84;5074931;28;20026;-40
2021/12/19 01:16:12;;;;;;;10.73;6.05;;;;;;;6.93;95.20;103645.03;5074888;28;20021;-41
2021/12/19 01:18:37;;;;;;;10.63;6.00;;;;;;;6.94;95.35;103644.13;5074706;28;20104;-40
2021/12/19 01:21:03;;;;;;;15.68;6.18;;;;;;;6.90;95.64;103646.03;5074351;28;20115;-40
2021/12/19 01:23:29;;;;;;;11.10;5.93;;;;;;;6.94;95.61;103644.13;5074755;28;20033;-38
2021/12/19 01:25:54;;;;;;;16.98;5.95;;;;;;;7.01;95.18;103645.38;5074971;28;20028;-39
2021/12/19 01:28:20;;;;;;;16.02;6.53;;;;;;;6.98;94.96;103643.00;5074649;28;20130;-40
2021/12/19 01:30:46;;;;;;;12.35;6.45;;;;;;;6.99;95.56;103642.06;5074637;28;20036;-41
2021/12/19 01:33:11;;;;;;;11.93;6.55;;;;;;;7.00;95.05;103641.16;5074760;28;20052;-41
2021/12/19 01:35:37;;;;;;;13.20;6.63;;;;;;;7.07;95.36;103633.91;5074410;28;20474;-41
2021/12/19 01:38:02;;;;;;;14.57;7.05;;;;;;;6.98;95.22;103630.16;5074460;28;20368;-48
2021/12/19 01:40:28;;;;;;;13.55;6.40;;;;;;;7.00;95.09;103642.00;5074711;28;20052;-39
2021/12/19 01:42:55;;;;;;;16.48;7.32;;;;;;;7.09;94.60;103632.06;5074631;28;20024;-41
2021/12/19 01:45:31;;;;;;;15.27;7.35;;;;;;;7.02;95.19;103639.34;5074329;28;20028;-40
2021/12/19 01:47:58;;;;;;;16.75;7.40;;;;;;;6.98;95.52;103630.16;5074171;28;20474;-40
2021/12/19 01:50:23;;;;;;;18.75;9.25;;;;;;;6.97;95.39;103631.06;5074247;28;20471;-39
2021/12/19 01:52:49;;;;;;;21.63;9.60;;;;;;;6.99;95.61;103632.63;5056203;28;20024;-40
2021/12/19 01:55:16;;;;;;;21.33;9.82;;;;;;;6.99;95.73;103632.63;5074076;28;20386;-39
2021/12/19 01:57:41;;;;;;;28.15;10.40;;;;;;;6.90;95.64;103607.47;5074153;28;20027;-40
2021/12/19 02:00:16;;;;;;;35.80;11.57;;;;;;;7.04;96.00;103628.94;5074071;28;20099;-41
2021/12/19 02:02:41;;;;;;;24.27;10.85;;;;;;;7.10;95.68;103623.41;5074559;28;20078;-46
2021/12/19 02:05:06;;;;;;;22.48;10.60;;;;;;;7.10;95.69;103623.41;5074215;28;20028;-41
2021/12/19 02:07:32;;;;;;;31.58;12.23;;;;;;;7.09;95.93;103620.03;5074188;28;20024;-41
2021/12/19 02:09:57;;;;;;;28.75;11.93;;;;;;;7.12;95.98;103617.28;5074101;28;20086;-42
2021/12/19 02:12:22;;;;;;;27.85;12.32;;;;;;;7.04;96.29;103613.50;5074141;28;20029;-41
2021/12/19 02:14:48;;;;;;;30.38;12.27;;;;;;;7.09;96.10;103607.16;5074352;28;20025;-41
2021/12/19 02:17:13;;;;;;;29.48;12.48;;;;;;;7.04;96.08;103608.38;5073738;28;20024;-40
2021/12/19 02:19:40;;;;;;;28.80;12.40;;;;;;;7.06;96.12;103602.22;5073771;28;20103;-41
2021/12/19 02:22:05;;;;;;;26.35;12.23;;;;;;;7.08;96.17;103596.97;5074004;28;20028;-39
2021/12/19 02:24:33;;;;;;;31.52;12.43;;;;;;;7.11;95.72;103589.91;5073684;28;20197;-40
2021/12/19 02:26:58;;;;;;;26.02;11.02;;;;;;;7.12;96.01;103588.97;5073896;28;20021;-41
2021/12/19 02:29:23;;;;;;;25.42;10.88;;;;;;;7.10;95.32;103583.09;5073649;28;20352;-40
2021/12/19 02:31:49;;;;;;;28.60;10.50;;;;;;;7.11;96.03;103577.06;5072729;28;20016;-41
2021/12/19 02:34:19;;;;;;;26.60;10.68;;;;;;;7.19;95.57;103579.13;5073577;28;20039;-39
2021/12/19 02:50:09;;;;;;;15.05;7.20;;;;;;;7.00;95.91;103567.44;5073678;28;20044;-40
2021/12/19 02:52:34;;;;;;;14.77;6.97;;;;;;;7.02;96.29;103562.22;5073244;28;20021;-38
2021/12/19 02:55:00;;;;;;;15.10;6.78;;;;;;;7.01;96.65;103557.97;5073315;28;20035;-39
2021/12/19 02:57:26;;;;;;;13.13;6.43;;;;;;;7.07;96.35;103560.16;5073560;28;20095;-40
2021/12/19 02:59:52;;;;;;;14.00;6.90;;;;;;;6.91;96.43;103521.72;5073277;28;20470;-39
2021/12/19 03:02:18;;;;;;;17.13;6.80;;;;;;;7.15;96.34;103554.53;5073336;28;20385;-39
2021/12/19 03:04:58;;;;;;;16.80;7.25;;;;;;;7.18;96.11;103554.34;5073543;28;20035;-40
2021/12/19 03:07:25;;;;;;;16.00;6.15;;;;;;;7.20;96.26;103550.75;5073525;28;20043;-41
2021/12/19 03:18:01;;;;;;;16.27;6.85;;;;;;;7.22;95.99;103538.63;5073759;28;20031;-39
2021/12/19 03:20:29;;;;;;;24.48;7.03;;;;;;;7.20;96.16;103537.88;5073166;28;20111;-41
2021/12/19 03:22:54;;;;;;;19.98;7.15;;;;;;;7.29;95.89;103533.09;5073142;28;20490;-41
2021/12/19 03:25:20;;;;;;;16.58;7.72;;;;;;;7.26;96.36;103523.00;5073371;28;20051;-40
2021/12/19 03:27:45;;;;;;;21.05;7.70;;;;;;;7.29;96.45;103526.19;5073077;28;20079;-41
2021/12/19 03:30:11;;;;;;;19.27;7.65;;;;;;;7.35;96.12;103517.25;5073570;28;20025;-41
2021/12/19 03:32:37;;;;;;;15.55;7.00;;;;;;;7.40;95.98;103512.66;5073278;28;20074;-41
2021/12/19 03:35:03;;;;;;;12.73;7.18;;;;;;;7.39;95.65;103504.13;5073005;28;20466;-40
2021/12/19 03:37:29;;;;;;;16.08;7.47;;;;;;;7.42;95.31;103509.06;5072745;28;20052;-41
2021/12/19 03:40:08;;;;;;;16.90;7.10;;;;;;;7.41;95.52;103499.66;5072954;28;20047;-40
2021/12/19 03:42:34;;;;;;;16.23;7.95;;;;;;;7.45;95.76;103502.88;5074830;28;20059;-40
2021/12/19 03:45:00;;;;;;;13.68;6.65;;;;;;;7.40;96.47;103498.03;5077086;28;20037;-40
2021/12/19 03:47:25;;;;;;;11.43;6.15;;;;;;;7.50;96.19;103497.44;5077142;28;20374;-41
2021/12/19 03:49:51;;;;;;;11.98;6.50;;;;;;;7.48;96.33;103492.41;5076786;28;20021;-41
2021/12/19 03:52:16;;;;;;;11.52;6.10;;;;;;;7.46;95.54;103486.53;5076448;28;20024;-41
2021/12/19 03:54:41;;;;;;;10.77;5.78;;;;;;;7.51;95.32;103487.06;5076465;28;20032;-40
2021/12/19 03:57:07;;;;;;;10.77;5.10;;;;;;;7.44;96.00;103484.03;5076338;28;20029;-41
2021/12/19 03:59:32;;;;;;;10.82;5.53;;;;;;;7.52;96.27;103478.41;5076939;28;20374;-41
2021/12/19 04:01:58;;;;;;;9.82;5.20;;;;;;;7.51;96.55;103476.75;5077151;28;20081;-40
2021/12/19 04:04:23;;;;;;;9.25;4.90;;;;;;;7.58;95.88;103478.00;5076850;28;20351;-42
2021/12/19 04:06:49;;;;;;;8.48;4.97;;;;;;;7.66;96.39;103475.72;5076490;28;20039;-40
2021/12/19 04:09:14;;;;;;;9.63;4.60;;;;;;;7.60;96.26;103471.00;5076247;28;20035;-40
2021/12/19 04:11:39;;;;;;;7.90;4.90;;;;;;;7.64;95.19;103469.03;5076136;28;20103;-39
2021/12/19 04:14:05;;;;;;;9.70;4.88;;;;;;;7.63;95.94;103463.06;5058141;28;20115;-41
2021/12/19 04:16:30;;;;;;;7.32;4.50;;;;;;;7.65;95.88;103462.97;5076067;28;20491;-40
2021/12/19 04:18:56;;;;;;;9.30;5.07;;;;;;;7.67;95.70;103453.38;5075962;28;20029;-40
2021/12/19 04:21:22;;;;;;;9.45;4.82;;;;;;;7.62;96.17;103453.72;5075995;28;20063;-41
2021/12/19 04:23:47;;;;;;;10.05;5.13;;;;;;;7.66;95.62;103454.31;5075990;28;20104;-40
2021/12/19 04:26:13;;;;;;;12.35;5.55;;;;;;;7.63;95.91;103449.38;5076622;28;20048;-41
2021/12/19 04:28:38;;;;;;;11.98;5.47;;;;;;;7.62;96.27;103456.28;5076099;28;20024;-43
2021/12/19 04:31:04;;;;;;;11.52;5.45;;;;;;;7.54;96.90;103449.97;5075823;28;20103;-38
2021/12/19 04:33:32;;;;;;;9.18;5.10;;;;;;;7.46;96.52;103453.88;5075672;28;20069;-40
2021/12/19 04:36:00;;;;;;;9.02;5.07;;;;;;;7.42;96.04;103449.03;5075654;28;20043;-41
2021/12/19 04:52:25;;;;;;;4.63;2.65;;;;;;;7.41;95.59;103448.22;5075964;28;20127;-38
2021/12/19 04:57:42;;;;;;;4.30;2.53;;;;;;;7.38;95.59;103439.88;5058614;28;20029;-39
2021/12/19 05:00:12;;;;;;;5.05;2.55;;;;;;;7.41;95.27;103444.81;5075580;28;20024;-40
2021/12/19 05:16:01;;;;;;;6.85;3.58;;;;;;;7.33;95.53;103439.34;5075015;28;20027;-41
2021/12/19 05:18:27;;;;;;;6.93;3.20;;;;;;;7.29;95.95;103432.78;5074801;28;20028;-39
2021/12/19 05:21:15;;;;;;;6.47;3.10;;;;;;;7.35;95.97;103432.38;5075124;28;20020;-40
2021/12/19 05:26:15;;;;;;;6.93;3.22;;;;;;;7.38;96.10;103427.84;5075338;28;20058;-39
2021/12/19 05:28:40;;;;;;;6.95;3.00;;;;;;;7.33;95.38;103421.34;5075156;28;20028;-39
2021/12/19 05:31:06;;;;;;;7.43;3.28;;;;;;;7.18;95.86;103406.00;5074666;28;20082;-40
2021/12/19 05:33:31;;;;;;;6.93;3.00;;;;;;;7.35;95.91;103429.78;5074544;28;20431;-41
2021/12/19 05:44:07;;;;;;;7.90;3.15;;;;;;;7.30;95.56;103431.84;5074760;28;20056;-40
2021/12/19 05:47:00;;;;;;;5.80;3.03;;;;;;;7.22;95.79;103428.03;5074911;28;20080;-41
2021/12/19 05:49:27;;;;;;;7.15;3.13;;;;;;;7.17;96.33;103424.94;5074335;28;20025;-40
2021/12/19 05:51:52;;;;;;;9.25;3.15;;;;;;;7.21;96.38;103423.78;5074435;28;20025;-43
2021/12/19 05:54:17;;;;;;;7.18;3.45;;;;;;;7.19;96.40;103419.66;5074238;28;20020;-41
2021/12/19 05:56:44;;;;;;;8.32;3.20;;;;;;;7.23;95.65;103421.94;5074351;28;20052;-41
2021/12/19 05:59:10;;;;;;;6.07;2.40;;;;;;;7.06;96.07;103419.66;5074374;28;20424;-39
2021/12/19 06:01:38;;;;;;;9.10;2.70;;;;;;;7.11;96.75;103421.94;5074361;28;20016;-41
2021/12/19 06:04:03;;;;;;;4.60;2.35;;;;;;;7.15;96.19;103421.63;5073989;28;20020;-41
2021/12/19 06:06:29;;;;;;;3.97;1.92;;;;;;;7.10;94.78;103415.13;5073873;28;20040;-41
2021/12/19 06:08:54;;;;;;;3.83;1.98;;;;;;;7.17;94.50;103411.25;5074002;28;20016;-41
2021/12/19 06:11:20;;;;;;;4.13;1.90;;;;;;;7.16;94.99;103407.00;5073945;28;20459;-41
2021/12/19 06:13:45;;;;;;;5.28;1.75;;;;;;;6.90;95.12;103391.53;5073897;28;20386;-40
2021/12/19 06:16:11;;;;;;;2.42;1.30;;;;;;;7.00;95.50;103422.63;5073827;28;20432;-40
2021/12/19 06:18:36;;;;;;;3.88;1.20;;;;;;;7.00;95.58;103427.75;5074311;28;20025;-38
2021/12/19 06:21:03;;;;;;;3.13;1.50;;;;;;;7.03;96.08;103424.19;5074070;28;20039;-41
2021/12/19 06:23:29;;;;;;;3.50;1.58;;;;;;;6.98;95.79;103420.13;5073997;28;20032;-39
2021/12/19 06:25:54;;;;;;;4.15;1.60;;;;;;;7.02;95.05;103428.50;5073719;28;20024;-40
2021/12/19 06:28:21;;;;;;;3.20;1.60;;;;;;;6.99;94.71;103433.81;5073713;28;20035;-41
2021/12/19 06:30:46;;;;;;;4.07;1.42;;;;;;;6.95;94.84;103427.22;5073911;28;20459;-40
2021/12/19 06:33:12;;;;;;;4.30;1.60;;;;;;;6.96;94.79;103422.00;5073567;28;20035;-39
2021/12/19 06:35:37;;;;;;;4.10;1.65;;;;;;;7.03;94.96;103408.75;5073366;28;20482;-41
2021/12/19 06:38:03;;;;;;;3.20;1.58;;;;;;;6.99;95.07;103405.53;5074145;28;20067;-41
2021/12/19 06:40:29;;;;;;;3.33;1.73;;;;;;;6.99;95.15;103402.97;5055650;28;20028;-41
2021/12/19 06:42:55;;;;;;;3.42;1.50;;;;;;;6.89;94.78;103397.59;5073580;28;20066;-39
2021/12/19 06:45:21;;;;;;;2.90;1.50;;;;;;;6.85;94.69;103401.28;5073510;28;20021;-40
2021/12/19 06:47:47;;;;;;;2.58;1.50;;;;;;;6.87;94.32;103404.56;5073438;28;20032;-39
2021/12/19 06:50:15;;;;;;;2.47;1.05;;;;;;;6.99;95.11;103396.09;5073481;28;20025;-40
2021/12/19 06:52:42;;;;;;;2.90;1.70;;;;;;;6.93;94.72;103399.06;5073325;28;20029;-40
2021/12/19 06:55:09;;;;;;;2.47;1.48;;;;;;;6.91;95.29;103408.63;5073394;28;20047;-40
2021/12/19 06:57:36;;;;;;;2.40;1.42;;;;;;;6.85;95.83;103411.59;5055360;28;20021;-40
2021/12/19 07:00:05;;;;;;;4.38;1.58;;;;;;;6.93;95.80;103408.50;5073385;28;20486;-39
2021/12/19 07:02:31;;;;;;;2.92;1.50;;;;;;;7.01;95.90;103394.22;5073564;28;20027;-41
2021/12/19 07:04:56;;;;;;;2.42;1.38;;;;;;;7.09;95.04;103400.63;5073362;28;20025;-41
2021/12/19 07:07:21;;;;;;;3.72;1.63;;;;;;;7.00;94.81;103400.31;5074013;28;20056;-40
2021/12/19 07:09:47;;;;;;;7.43;2.10;;;;;;;6.95;95.35;103389.47;5073547;28;20056;-40
2021/12/19 07:12:12;;;;;;;3.25;1.67;;;;;;;6.99;95.35;103393.53;5073522;28;20032;-39
2021/12/19 07:14:38;;;;;;;3.75;1.67;;;;;;;6.96;94.92;103385.16;5073166;28;20142;-39
2021/12/19 07:17:03;;;;;;;5.82;1.90;;;;;;;6.97;95.30;103390.22;5073449;28;20025;-41
2021/12/19 07:19:29;;;;;;;4.05;1.58;;;;;;;7.03;95.38;103381.28;5077463;28;20035;-41
2021/12/19 07:21:54;;;;;;;5.07;1.92;;;;;;;7.06;95.33;103380.25;5077175;28;20386;-39
2021/12/19 07:24:19;;;;;;;3.47;1.83;;;;;;;7.05;95.25;103384.59;5077100;28;20099;-42
2021/12/19 07:26:45;;;;;;;4.35;2.00;;;;;;;7.11;94.93;103394.47;5077067;28;20024;-40
2021/12/19 07:29:10;;;;;;;4.13;1.70;;;;;;;7.09;95.15;103386.03;5076999;28;20467;-39
2021/12/19 07:31:37;;;;;;;2.47;1.52;;;;;;;7.07;94.90;103382.72;5077117;28;20098;-41
2021/12/19 07:34:04;;;;;;;3.08;1.60;;;;;;;7.01;95.60;103383.13;5077601;28;20017;-43
2021/12/19 07:36:36;;;;;;;5.00;1.38;;;;;;;7.01;94.78;103383.94;5076680;28;20414;-41
2021/12/19 07:39:10;;;;;;;3.33;1.67;;;;;;;7.06;95.25;103380.25;5058847;28;20109;-40
2021/12/19 07:41:35;;;;;;;2.47;1.45;;;;;;;7.12;94.96;103379.88;5076766;28;20036;-39
2021/12/19 07:44:01;;;;;;;3.10;1.58;;;;;;;7.11;94.07;103373.09;5077148;28;20025;-41
2021/12/19 07:46:26;;;;;;;3.28;1.63;;;;;;;7.05;94.17;103368.31;5076987;28;20406;-40
2021/12/19 07:48:51;;;;;;;3.78;1.73;;;;;;;6.92;94.70;103368.31;5076926;28;20089;-40
2021/12/19 07:51:17;;;;;;;3.80;1.30;;;;;;;6.93;94.72;103367.38;5076606;28;20142;-39
2021/12/19 07:53:42;;;;;;;2.05;1.30;;;;;;;6.95;95.34;103366.34;5076486;28;20074;-41
2021/12/19 07:56:07;;;;;;;2.20;1.15;;;;;;;6.99;94.41;103365.25;5076508;28;20369;-40
2021/12/19 07:58:33;;;;;;;2.63;1.42;;;;;;;7.06;94.20;103357.94;5076635;28;20079;-40
2021/12/19 08:00:58;;;;;;;3.10;1.42;;;;;;;7.05;94.86;103361.44;5076693;28;20107;-42
2021/12/19 08:03:24;;;;;;;1.83;1.15;;;;;;;7.09;94.57;103374.91;5076668;28;20048;-41
2021/12/19 08:05:50;;;;;;;3.00;1.33;;;;;;;7.07;95.12;103367.28;5076329;28;20035;-40
2021/12/19 08:08:18;;;;;;;5.00;1.58;;;;;;;7.14;94.34;103367.75;5076220;28;20028;-39
2021/12/19 08:13:09;;;;;;;4.28;1.10;;;;;;;7.16;94.14;103364.13;5076141;28;20028;-44
2021/12/19 08:15:36;;;;;;;2.22;1.30;;;;;;;7.22;94.62;103362.88;5076365;28;20107;-41
2021/12/19 08:18:02;;;;;;;2.40;1.50;;;;;;;7.19;93.87;103361.38;5058205;28;20036;-41
2021/12/19 08:20:28;;;;;;;3.42;1.70;;;;;;;7.21;94.93;103358.69;5076568;28;20024;-41
2021/12/19 08:22:54;;;;;;;4.90;1.77;;;;;;;7.24;94.38;103351.56;5076266;28;20021;-41
2021/12/19 08:25:20;;;;;;;2.00;1.30;;;;;;;7.16;94.84;103350.44;5076190;28;20032;-39
2021/12/19 08:27:46;;;;;;;3.67;1.50;;;;;;;7.09;94.27;103344.88;5076240;28;20097;-43
2021/12/19 08:30:13;;;;;;;5.03;2.08;;;;;;;7.14;94.13;103342.84;5074505;28;20055;-44
2021/12/19 08:32:39;;;;;;;1.98;1.30;;;;;;;7.16;93.22;103345.28;5075779;28;20031;-43
2021/12/19 08:35:06;;;;;;;5.13;1.45;;;;;;;7.17;93.87;103334.09;5075928;28;20025;-44
2021/12/19 08:37:32;;;;;;;2.53;1.50;;;;;;;7.24;93.37;103338.72;5075426;28;20032;-44
2021/12/19 08:39:57;;;;;;;5.72;1.50;;;;;;;7.28;93.24;103341.06;5075712;28;20025;-45
2021/12/19 08:42:23;;;;;;;2.58;1.35;;;;;;;7.24;93.37;103343.03;5075647;28;20074;-45
2021/12/19 08:44:49;;;;;;;3.33;1.70;;;;;;;7.37;93.41;103341.31;5075667;28;20471;-47
2021/12/19 08:47:15;;;;;;;8.40;1.73;;;;;;;7.38;93.49;103334.41;5075528;28;20105;-44
2021/12/19 08:49:41;;;;;;;4.32;2.20;;;;;;;7.37;93.20;103337.91;5075576;28;20107;-43
2021/12/19 08:52:08;;;;;;;3.80;2.03;;;;;;;7.29;93.96;103327.31;5057490;28;20119;-42
2021/12/19 08:54:34;;;;;;;3.40;1.70;;;;;;;7.30;94.45;103331.53;5057605;28;20471;-44
2021/12/19 08:56:59;;;;;;;3.92;1.65;;;;;;;7.29;93.25;103337.59;5057352;28;20039;-44
2021/12/19 08:59:26;;;;;;;2.83;1.50;;;;;;;7.20;94.21;103329.56;5057429;28;20382;-44
2021/12/19 09:01:53;;;;;;;3.30;1.52;;;;;;;7.28;94.49;103334.22;5075291;28;20031;-43
2021/12/19 09:04:18;;;;;;;5.90;1.90;;;;;;;7.20;94.51;103324.41;5075114;28;20070;-45
2021/12/19 09:06:44;;;;;;;4.18;1.77;;;;;;;7.27;94.30;103331.72;5075194;28;20021;-43
2021/12/19 09:09:09;;;;;;;3.88;2.00;;;;;;;7.40;94.66;103324.84;5075394;28;20024;-43
2021/12/19 09:11:35;;;;;;;3.13;2.00;;;;;;;7.36;94.18;103326.78;5075574;28;20103;-43
2021/12/19 09:14:01;;;;;;;6.15;2.00;;;;;;;7.30;94.18;103334.09;5075205;28;20029;-44
2021/12/19 09:16:26;;;;;;;7.32;1.98;;;;;;;7.39;94.60;103336.03;5074888;28;20471;-44
2021/12/19 09:18:52;;;;;;;6.05;2.20;;;;;;;7.36;93.40;103336.25;5075113;28;20028;-43
2021/12/19 09:21:17;;;;;;;6.82;2.45;;;;;;;7.36;93.67;103336.25;5074800;28;20032;-44
2021/12/19 09:23:42;;;;;;;8.10;2.25;;;;;;;7.36;93.96;103331.91;5056840;28;20032;-44
2021/12/19 09:26:08;;;;;;;7.70;2.58;;;;;;;7.37;94.20;103330.19;5056860;28;20067;-44
2021/12/19 09:28:34;;;;;;;4.70;2.30;;;;;;;7.35;94.20;103326.91;5074586;28;20524;-44
2021/12/19 09:31:00;;;;;;;5.57;2.83;;;;;;;7.59;93.60;103337.25;5074762;28;20410;-45
2021/12/19 09:33:25;;;;;;;5.00;2.67;;;;;;;7.45;93.22;103323.59;5074368;28;20028;-42
2021/12/19 09:35:51;;;;;;;5.50;2.78;;;;;;;7.57;92.77;103334.81;5074493;28;20343;-46
2021/12/19 09:38:22;;;;;;;9.55;3.00;;;;;;;7.63;92.11;103333.56;5074477;28;20363;-42
2021/12/19 09:40:47;;;;;;;5.90;2.72;;;;;;;7.53;92.24;103327.41;5095994;22;20052;-75
2021/12/19 09:43:41;;;;;;;9.98;2.97;;;;;;;7.58;92.09;103333.88;5094607;28;20023;-75
2021/12/19 09:46:10;;;;;;;8.40;3.20;;;;;;;7.34;93.44;103336.38;5093405;28;20061;-75
2021/12/19 09:48:38;;;;;;;8.48;2.88;;;;;;;7.31;93.19;103330.59;5094495;28;20043;-75
2021/12/19 09:51:03;;;;;;;8.30;3.55;;;;;;;7.38;92.57;103336.97;5094453;28;20024;-75
2021/12/19 09:53:29;;;;;;;6.68;3.08;;;;;;;7.54;92.08;103339.31;5076304;28;20028;-75
2021/12/19 09:55:54;;;;;;;10.23;2.92;;;;;;;7.53;91.48;103333.34;5094344;28;20020;-75
2021/12/19 09:58:19;;;;;;;15.70;3.90;;;;;;;7.51;92.14;103330.09;5093017;28;20112;-75
2021/12/19 10:00:45;;;;;;;8.50;2.90;;;;;;;7.40;92.38;103328.22;5094712;28;20028;-75
2021/12/19 10:03:11;;;;;;;12.15;3.53;;;;;;;7.50;91.63;103318.13;5092973;28;20378;-73
2021/12/19 10:05:37;;;;;;;11.23;3.50;;;;;;;7.49;91.81;103319.06;5092943;28;20119;-74
2021/12/19 10:08:03;;;;;;;9.05;3.50;;;;;;;7.52;91.69;103326.56;5092856;28;20107;-74
2021/12/19 10:10:44;;;;;;;13.13;3.75;;;;;;;7.45;91.35;103325.31;5094051;28;20034;-74
2021/12/19 10:13:10;;;;;;;8.55;3.40;;;;;;;7.38;93.05;103316.41;5094388;28;20031;-76
2021/12/19 10:15:38;;;;;;;9.48;3.40;;;;;;;7.54;91.31;103311.88;5092709;28;20111;-74
2021/12/19 10:18:06;;;;;;;12.50;3.35;;;;;;;7.59;91.29;103324.41;5093957;28;20466;-74
2021/12/19 10:20:48;;;;;;;10.73;3.30;;;;;;;7.60;91.22;103316.59;5094163;28;20394;-75
2021/12/19 10:23:26;;;;;;;9.48;3.08;;;;;;;7.57;91.86;103311.66;5092669;28;20044;-74
2021/12/19 10:26:14;;;;;;;9.20;3.25;;;;;;;7.53;91.94;103319.66;5093153;28;20411;-74
2021/12/19 10:28:55;;;;;;;14.45;3.95;;;;;;;7.56;91.77;103309.16;5090037;28;20034;-74
2021/12/19 10:31:22;;;;;;;9.80;3.60;;;;;;;7.58;91.50;103313.28;5093217;28;20030;-74
2021/12/19 10:33:48;;;;;;;10.98;3.80;;;;;;;7.67;91.02;103306.69;5093836;28;20028;-74
2021/12/19 10:36:14;;;;;;;18.58;3.55;;;;;;;7.66;90.68;103298.16;5092215;28;20031;-74
2021/12/19 10:38:50;;;;;;;10.23;3.50;;;;;;;7.57;90.64;103303.13;5092340;28;20030;-74
2021/12/19 10:41:25;;;;;;;16.17;3.65;;;;;;;7.55;90.59;103298.06;5093676;28;20044;-74
2021/12/19 10:44:00;;;;;;;11.48;3.50;;;;;;;7.63;91.27;103298.34;5093574;28;20031;-74
2021/12/19 10:46:39;;;;;;;14.05;3.83;;;;;;;7.78;89.80;103303.38;5093563;28;20169;-74
2021/12/19 10:49:20;;;;;;;15.35;4.38;;;;;;;7.74;88.87;103294.19;5094137;28;20027;-74
2021/12/19 10:51:48;;;;;;;12.32;4.10;;;;;;;7.69;89.61;103279.91;5091926;28;20032;-74
2021/12/19 10:54:14;;;;;;;11.95;3.78;;;;;;;7.77;90.06;103283.69;5092224;28;20534;-74
2021/12/19 10:56:40;;;;;;;15.48;4.00;;;;;;;7.62;90.38;103280.44;5093468;28;20024;-74
2021/12/19 10:59:16;;;;;;;12.95;3.78;;;;;;;7.63;89.92;103266.66;5092122;28;20020;-75
2021/12/19 11:01:47;;;;;;;17.60;4.45;;;;;;;7.65;90.11;103268.19;5093631;28;20052;-74
2021/12/19 11:04:22;;;;;;;13.98;4.20;;;;;;;7.67;89.99;103268.91;5093289;28;20024;-74
2021/12/19 11:06:54;;;;;;;11.73;4.13;;;;;;;7.53;90.92;103248.44;5094303;28;20103;-74
2021/12/19 11:09:28;;;;;;;15.98;4.32;;;;;;;7.80;89.54;103260.34;5092291;28;20028;-74
2021/12/19 11:12:10;;;;;;;13.48;3.90;;;;;;;7.71;89.72;103248.94;5096807;28;20035;-73
2021/12/19 11:14:47;;;;;;;15.35;4.05;;;;;;;7.80;88.88;103252.63;5103584;28;20046;-74
2021/12/19 11:17:21;;;;;;;10.38;3.72;;;;;;;7.75;89.45;103252.09;5091906;28;20073;-75
2021/12/19 11:19:48;;;;;;;18.45;4.00;;;;;;;7.86;88.84;103257.31;5093277;28;20031;-75
2021/12/19 11:22:23;;;;;;;13.88;4.25;;;;;;;7.95;88.95;103246.38;5091865;28;20063;-74
2021/12/19 11:24:48;;;;;;;14.02;3.42;;;;;;;7.67;87.83;103243.16;5093634;28;20028;-76
2021/12/19 11:27:14;;;;;;;10.57;3.58;;;;;;;7.81;89.00;103247.34;5096602;28;20024;-75
2021/12/19 11:29:41;;;;;;;18.77;3.95;;;;;;;7.71;88.64;103253.22;5094685;28;20461;-75
2021/12/19 11:32:08;;;;;;;11.43;3.38;;;;;;;7.50;87.86;103242.69;5093541;28;20028;-75
2021/12/19 11:34:56;;;;;;;13.70;3.17;;;;;;;7.71;89.07;103237.78;5093300;28;20016;-74
2021/12/19 11:37:44;;;;;;;12.10;3.05;;;;;;;7.66;88.22;103235.56;5091973;28;20077;-74
2021/12/19 11:40:16;;;;;;;4.53;2.38;;;;;;;7.61;87.61;103222.19;5092994;28;20067;-75
2021/12/19 11:42:41;;;;;;;9.30;2.65;;;;;;;7.74;87.72;103230.69;5092457;28;20035;-73
2021/12/19 11:48:18;;;;;;;7.63;2.35;;;;;;;7.78;88.24;103226.16;5093709;28;20086;-75
2021/12/19 11:50:58;;;;;;;4.93;2.15;;;;;;;7.72;88.23;103216.28;5091868;28;20424;-73
2021/12/19 11:53:39;;;;;;;6.82;2.17;;;;;;;7.69;88.15;103219.91;5091910;28;20024;-73
2021/12/19 11:56:11;;;;;;;8.43;2.47;;;;;;;7.78;88.49;103205.56;5091821;28;20503;-74
2021/12/19 11:58:55;;;;;;;7.55;2.50;;;;;;;7.75;89.22;103211.75;5091748;28;20024;-74
2021/12/19 12:01:23;;;;;;;7.72;2.00;;;;;;;7.69;88.97;103209.59;5092134;28;20374;-73
2021/12/19 12:03:52;;;;;;;4.65;2.03;;;;;;;7.69;89.35;103209.59;5093330;28;20074;-74
2021/12/19 12:06:19;;;;;;;8.85;2.60;;;;;;;7.76;89.04;103202.25;5095361;28;20028;-74
2021/12/19 12:09:12;;;;;;;7.72;2.47;;;;;;;7.61;89.36;103207.56;5096618;28;20015;-75
2021/12/19 12:11:41;;;;;;;6.90;1.90;;;;;;;7.58;90.67;103197.47;5095196;28;20115;-75
2021/12/19 12:14:29;;;;;;;6.78;2.60;;;;;;;7.55;90.52;103192.56;5096427;28;20539;-75
2021/12/19 12:16:58;;;;;;;6.68;2.42;;;;;;;7.61;89.54;103191.31;5078845;28;20385;-75
2021/12/19 12:19:39;;;;;;;8.68;2.53;;;;;;;7.61;91.02;103181.81;5095135;28;20051;-75
2021/12/19 12:25:09;;;;;;;10.57;2.70;;;;;;;7.47;91.17;103187.94;5096914;28;20027;-75
2021/12/19 12:27:53;;;;;;;11.73;3.20;;;;;;;7.51;91.77;103185.16;5095403;28;20442;-74
2021/12/19 12:30:22;;;;;;;8.60;3.13;;;;;;;7.50;91.38;103179.19;5094857;28;20052;-75
2021/12/19 12:32:48;;;;;;;6.95;2.80;;;;;;;7.40;91.57;103170.47;5096296;28;20028;-75
2021/12/19 12:35:14;;;;;;;5.65;2.92;;;;;;;7.59;91.87;103164.84;5077847;28;20043;-75
2021/12/19 12:37:42;;;;;;;9.27;3.28;;;;;;;7.41;91.88;103167.78;5094686;28;20077;-74
2021/12/19 12:40:18;;;;;;;10.00;3.90;;;;;;;7.52;91.58;103153.38;5094694;28;20494;-75
2021/12/19 12:43:05;;;;;;;12.07;3.20;;;;;;;7.51;91.79;103151.69;5091639;28;20312;-74
2021/12/19 12:45:47;;;;;;;7.43;2.70;;;;;;;7.46;91.78;103146.91;5094668;28;20028;-76
2021/12/19 12:48:32;;;;;;;10.60;3.28;;;;;;;7.43;92.45;103142.78;5094938;28;20048;-76